sensor_id;sensor_type;location;lat;lon;timestamp;pressure;altitude;pressure_sealevel;temperature;humidity
55066;BME280;40964;42.114;24.220;2024-03-23T00:54:19;97932.53;;;4.56;69.25
55066;BME280;40964;42.114;24.220;2024-03-23T00:56:44;97930.84;;;4.64;68.87
55066;BME280;40964;42.114;24.220;2024-03-23T00:59:09;97928.38;;;4.70;69.27
55066;BME280;40964;42.114;24.220;2024-03-23T01:01:35;97933.69;;;4.77;68.78
55066;BME280;40964;42.114;24.220;2024-03-23T01:04:00;97931.91;;;4.77;68.18
55066;BME280;40964;42.114;24.220;2024-03-23T01:06:26;97933.69;;;4.77;68.75
55066;BME280;40964;42.114;24.220;2024-03-23T01:08:51;97932.03;;;4.76;68.20
55066;BME280;40964;42.114;24.220;2024-03-23T01:11:17;97922.53;;;4.68;68.73
55066;BME280;40964;42.114;24.220;2024-03-23T01:13:43;97918.19;;;4.61;68.26
55066;BME280;40964;42.114;24.220;2024-03-23T01:16:08;97922.97;;;4.72;68.32
55066;BME280;40964;42.114;24.220;2024-03-23T01:18:34;97918.75;;;4.71;67.69
55066;BME280;40964;42.114;24.220;2024-03-23T01:21:00;97932.94;;;4.68;68.07
55066;BME280;40964;42.114;24.220;2024-03-23T01:23:25;97925.00;;;4.62;67.96
55066;BME280;40964;42.114;24.220;2024-03-23T01:25:54;97926.81;;;4.61;68.56
55066;BME280;40964;42.114;24.220;2024-03-23T01:28:20;97888.78;;;4.29;68.51
55066;BME280;40964;42.114;24.220;2024-03-23T01:30:46;97927.44;;;4.63;68.31
55066;BME280;40964;42.114;24.220;2024-03-23T01:33:11;97929.97;;;4.71;67.88
55066;BME280;40964;42.114;24.220;2024-03-23T01:35:37;97928.00;;;4.73;67.50
55066;BME280;40964;42.114;24.220;2024-03-23T01:38:03;97928.19;;;4.72;67.57
55066;BME280;40964;42.114;24.220;2024-03-23T01:40:28;97930.16;;;4.70;67.10
55066;BME280;40964;42.114;24.220;2024-03-23T01:42:58;97937.91;;;4.78;67.50
55066;BME280;40964;42.114;24.220;2024-03-23T01:45:24;97926.94;;;4.68;67.38
55066;BME280;40964;42.114;24.220;2024-03-23T01:47:51;97932.41;;;4.73;67.57
55066;BME280;40964;42.114;24.220;2024-03-23T01:50:18;97913.78;;;4.61;67.44
55066;BME280;40964;42.114;24.220;2024-03-23T01:52:44;97929.16;;;4.71;67.51
55066;BME280;40964;42.114;24.220;2024-03-23T01:55:10;97933.75;;;4.69;67.43
55066;BME280;40964;42.114;24.220;2024-03-23T01:57:38;97926.56;;;4.71;67.12
55066;BME280;40964;42.114;24.220;2024-03-23T02:00:04;97920.44;;;4.64;67.25
55066;BME280;40964;42.114;24.220;2024-03-23T02:02:30;97932.13;;;4.68;67.81
55066;BME280;40964;42.114;24.220;2024-03-23T02:04:55;97926.94;;;4.68;67.87
55066;BME280;40964;42.114;24.220;2024-03-23T02:07:21;97921.25;;;4.64;67.69
55066;BME280;40964;42.114;24.220;2024-03-23T02:09:46;97932.19;;;4.60;67.54
55066;BME280;40964;42.114;24.220;2024-03-23T02:12:12;97924.94;;;4.47;67.89
55066;BME280;40964;42.114;24.220;2024-03-23T02:14:37;97925.75;;;4.47;68.05
55066;BME280;40964;42.114;24.220;2024-03-23T02:17:03;97927.38;;;4.48;68.00
55066;BME280;40964;42.114;24.220;2024-03-23T02:19:29;97902.13;;;4.34;67.64
55066;BME280;40964;42.114;24.220;2024-03-23T02:21:54;97927.16;;;4.35;68.02
55066;BME280;40964;42.114;24.220;2024-03-23T02:24:19;97926.53;;;4.33;68.10
55066;BME280;40964;42.114;24.220;2024-03-23T02:26:45;97925.25;;;4.29;68.49
55066;BME280;40964;42.114;24.220;2024-03-23T02:29:13;97928.38;;;4.24;69.23
55066;BME280;40964;42.114;24.220;2024-03-23T02:31:39;97926.47;;;4.18;68.90
55066;BME280;40964;42.114;24.220;2024-03-23T02:34:04;97929.09;;;4.10;70.18
55066;BME280;40964;42.114;24.220;2024-03-23T02:36:29;97928.59;;;4.15;69.34
55066;BME280;40964;42.114;24.220;2024-03-23T02:38:56;97868.72;;;3.92;69.18
55066;BME280;40964;42.114;24.220;2024-03-23T02:41:21;97899.16;;;4.14;68.94
55066;BME280;40964;42.114;24.220;2024-03-23T02:43:51;97909.84;;;4.19;69.16
55066;BME280;40964;42.114;24.220;2024-03-23T02:46:17;97920.66;;;4.31;69.34
55066;BME280;40964;42.114;24.220;2024-03-23T02:48:43;97900.56;;;4.25;69.11
55066;BME280;40964;42.114;24.220;2024-03-23T02:51:08;97910.44;;;4.30;69.16
55066;BME280;40964;42.114;24.220;2024-03-23T02:53:34;97909.28;;;4.32;68.61
55066;BME280;40964;42.114;24.220;2024-03-23T02:55:59;97913.69;;;4.32;68.55
55066;BME280;40964;42.114;24.220;2024-03-23T02:58:25;97907.78;;;4.38;68.74
55066;BME280;40964;42.114;24.220;2024-03-23T03:00:50;97905.91;;;4.46;67.96
55066;BME280;40964;42.114;24.220;2024-03-23T03:03:15;97909.22;;;4.40;68.30
55066;BME280;40964;42.114;24.220;2024-03-23T03:05:41;97911.66;;;4.42;68.19
55066;BME280;40964;42.114;24.220;2024-03-23T03:08:06;97891.56;;;4.27;67.69
55066;BME280;40964;42.114;24.220;2024-03-23T03:10:32;97910.09;;;4.33;68.53
55066;BME280;40964;42.114;24.220;2024-03-23T03:13:00;97910.03;;;4.18;69.37
55066;BME280;40964;42.114;24.220;2024-03-23T03:15:26;97916.44;;;4.07;69.70
55066;BME280;40964;42.114;24.220;2024-03-23T03:17:51;97908.34;;;4.02;69.25
55066;BME280;40964;42.114;24.220;2024-03-23T03:20:17;97909.41;;;3.85;70.50
55066;BME280;40964;42.114;24.220;2024-03-23T03:22:43;97910.53;;;3.90;70.56
55066;BME280;40964;42.114;24.220;2024-03-23T03:25:09;97908.28;;;3.87;70.79
55066;BME280;40964;42.114;24.220;2024-03-23T03:27:34;97913.34;;;3.81;70.59
55066;BME280;40964;42.114;24.220;2024-03-23T03:30:00;97919.56;;;3.72;70.49
55066;BME280;40964;42.114;24.220;2024-03-23T03:32:29;97906.59;;;3.63;71.01
55066;BME280;40964;42.114;24.220;2024-03-23T03:34:54;97911.44;;;3.66;71.82
55066;BME280;40964;42.114;24.220;2024-03-23T03:37:20;97911.78;;;3.63;71.75
55066;BME280;40964;42.114;24.220;2024-03-23T03:39:45;97916.88;;;3.49;72.33
55066;BME280;40964;42.114;24.220;2024-03-23T03:42:10;97916.28;;;3.30;72.56
55066;BME280;40964;42.114;24.220;2024-03-23T03:44:36;97921.69;;;3.12;73.49
55066;BME280;40964;42.114;24.220;2024-03-23T03:47:02;97915.72;;;3.04;73.97
55066;BME280;40964;42.114;24.220;2024-03-23T03:49:27;97911.50;;;2.95;74.60
55066;BME280;40964;42.114;24.220;2024-03-23T03:51:53;97914.09;;;3.03;74.46
55066;BME280;40964;42.114;24.220;2024-03-23T03:54:18;97913.28;;;3.02;73.96
55066;BME280;40964;42.114;24.220;2024-03-23T03:56:43;97922.22;;;3.08;74.07
55066;BME280;40964;42.114;24.220;2024-03-23T03:59:09;97923.50;;;3.04;74.44
55066;BME280;40964;42.114;24.220;2024-03-23T04:01:34;97918.19;;;2.97;74.02
55066;BME280;40964;42.114;24.220;2024-03-23T04:04:01;97918.31;;;2.96;75.01
55066;BME280;40964;42.114;24.220;2024-03-23T04:06:26;97916.06;;;2.93;73.95
55066;BME280;40964;42.114;24.220;2024-03-23T04:08:52;97920.78;;;2.97;74.30
55066;BME280;40964;42.114;24.220;2024-03-23T04:11:17;97919.47;;;2.93;75.16
55066;BME280;40964;42.114;24.220;2024-03-23T04:13:43;97924.66;;;2.85;75.75
55066;BME280;40964;42.114;24.220;2024-03-23T04:16:08;97927.44;;;2.83;75.19
55066;BME280;40964;42.114;24.220;2024-03-23T04:18:35;97933.28;;;2.85;75.55
55066;BME280;40964;42.114;24.220;2024-03-23T04:21:00;97936.22;;;2.82;75.26
55066;BME280;40964;42.114;24.220;2024-03-23T04:23:26;97943.66;;;2.77;75.74
55066;BME280;40964;42.114;24.220;2024-03-23T04:25:51;97932.00;;;2.73;75.54
55066;BME280;40964;42.114;24.220;2024-03-23T04:28:18;97936.38;;;2.81;76.09
55066;BME280;40964;42.114;24.220;2024-03-23T04:30:44;97935.56;;;2.89;75.45
55066;BME280;40964;42.114;24.220;2024-03-23T04:33:09;97938.59;;;3.08;76.21
55066;BME280;40964;42.114;24.220;2024-03-23T04:35:35;97936.97;;;3.24;75.42
55066;BME280;40964;42.114;24.220;2024-03-23T04:38:01;97937.38;;;3.44;74.87
55066;BME280;40964;42.114;24.220;2024-03-23T04:40:26;97935.19;;;3.63;74.37
55066;BME280;40964;42.114;24.220;2024-03-23T04:42:52;97936.22;;;3.85;73.68
55066;BME280;40964;42.114;24.220;2024-03-23T04:45:17;97929.63;;;4.06;73.30
55066;BME280;40964;42.114;24.220;2024-03-23T04:47:43;97933.84;;;4.30;71.64
55066;BME280;40964;42.114;24.220;2024-03-23T04:50:09;97937.78;;;4.48;71.03
55066;BME280;40964;42.114;24.220;2024-03-23T04:52:36;97939.72;;;4.54;71.25
55066;BME280;40964;42.114;24.220;2024-03-23T04:55:01;97934.31;;;4.56;70.36
55066;BME280;40964;42.114;24.220;2024-03-23T04:57:27;97937.56;;;4.81;69.52
55066;BME280;40964;42.114;24.220;2024-03-23T04:59:52;97936.59;;;4.97;69.13
55066;BME280;40964;42.114;24.220;2024-03-23T05:02:17;97933.06;;;4.90;69.71
55066;BME280;40964;42.114;24.220;2024-03-23T05:04:43;97932.91;;;4.91;70.27
55066;BME280;40964;42.114;24.220;2024-03-23T05:07:08;97929.47;;;4.91;70.49
55066;BME280;40964;42.114;24.220;2024-03-23T05:09:34;97934.50;;;4.92;69.67
55066;BME280;40964;42.114;24.220;2024-03-23T05:12:00;97931.09;;;4.92;69.71
55066;BME280;40964;42.114;24.220;2024-03-23T05:14:26;97921.78;;;4.97;69.67
55066;BME280;40964;42.114;24.220;2024-03-23T05:16:52;97920.22;;;5.03;69.48
55066;BME280;40964;42.114;24.220;2024-03-23T05:19:17;97925.00;;;4.99;69.61
55066;BME280;40964;42.114;24.220;2024-03-23T05:21:43;97928.59;;;4.98;71.21
55066;BME280;40964;42.114;24.220;2024-03-23T05:24:08;97927.41;;;4.86;72.12
55066;BME280;40964;42.114;24.220;2024-03-23T05:26:34;97930.34;;;4.83;73.30
55066;BME280;40964;42.114;24.220;2024-03-23T05:29:01;97923.91;;;4.94;72.24
55066;BME280;40964;42.114;24.220;2024-03-23T05:31:28;97923.34;;;4.83;70.45
55066;BME280;40964;42.114;24.220;2024-03-23T05:33:54;97923.41;;;4.75;70.36
55066;BME280;40964;42.114;24.220;2024-03-23T05:36:20;97928.53;;;4.69;70.65
55066;BME280;40964;42.114;24.220;2024-03-23T05:38:46;97916.97;;;4.71;69.69
55066;BME280;40964;42.114;24.220;2024-03-23T05:41:12;97931.72;;;4.79;71.49
55066;BME280;40964;42.114;24.220;2024-03-23T05:43:37;97921.56;;;4.84;72.58
55066;BME280;40964;42.114;24.220;2024-03-23T05:46:03;97919.34;;;4.96;71.94
55066;BME280;40964;42.114;24.220;2024-03-23T05:48:33;97921.47;;;4.92;69.47
55066;BME280;40964;42.114;24.220;2024-03-23T05:50:59;97922.69;;;5.04;69.66
55066;BME280;40964;42.114;24.220;2024-03-23T05:53:25;97912.88;;;5.06;71.78
55066;BME280;40964;42.114;24.220;2024-03-23T05:55:51;97922.59;;;5.27;72.46
55066;BME280;40964;42.114;24.220;2024-03-23T05:58:19;97925.84;;;5.29;74.54
55066;BME280;40964;42.114;24.220;2024-03-23T06:00:45;97912.81;;;5.44;74.35
55066;BME280;40964;42.114;24.220;2024-03-23T06:03:11;97915.75;;;5.56;73.21
55066;BME280;40964;42.114;24.220;2024-03-23T06:05:37;97923.19;;;5.74;73.31
55066;BME280;40964;42.114;24.220;2024-03-23T06:08:03;97910.06;;;5.82;71.14
55066;BME280;40964;42.114;24.220;2024-03-23T06:10:28;97919.09;;;5.94;68.82
55066;BME280;40964;42.114;24.220;2024-03-23T06:12:54;97925.44;;;6.06;68.08
55066;BME280;40964;42.114;24.220;2024-03-23T06:15:19;97901.94;;;6.06;69.35
55066;BME280;40964;42.114;24.220;2024-03-23T06:17:45;97917.50;;;6.14;69.48
55066;BME280;40964;42.114;24.220;2024-03-23T06:20:11;97914.19;;;6.27;69.25
55066;BME280;40964;42.114;24.220;2024-03-23T06:22:38;97919.16;;;6.43;68.66
55066;BME280;40964;42.114;24.220;2024-03-23T06:25:04;97916.31;;;6.60;68.87
55066;BME280;40964;42.114;24.220;2024-03-23T06:27:29;97915.78;;;6.71;68.30
55066;BME280;40964;42.114;24.220;2024-03-23T06:29:55;97912.16;;;6.93;67.53
55066;BME280;40964;42.114;24.220;2024-03-23T06:32:21;97906.88;;;7.15;65.69
55066;BME280;40964;42.114;24.220;2024-03-23T06:34:46;97913.16;;;7.27;65.75
55066;BME280;40964;42.114;24.220;2024-03-23T06:37:12;97916.59;;;7.27;65.71
55066;BME280;40964;42.114;24.220;2024-03-23T06:39:38;97920.38;;;7.18;67.04
55066;BME280;40964;42.114;24.220;2024-03-23T06:42:04;97921.94;;;7.13;64.35
55066;BME280;40964;42.114;24.220;2024-03-23T06:44:30;97921.34;;;7.10;65.96
55066;BME280;40964;42.114;24.220;2024-03-23T06:46:56;97916.13;;;7.10;67.46
55066;BME280;40964;42.114;24.220;2024-03-23T06:49:25;97918.41;;;7.27;66.00
55066;BME280;40964;42.114;24.220;2024-03-23T06:51:50;97917.84;;;7.31;66.75
55066;BME280;40964;42.114;24.220;2024-03-23T06:54:19;97923.94;;;7.45;65.02
55066;BME280;40964;42.114;24.220;2024-03-23T06:56:45;97920.97;;;7.48;62.59
55066;BME280;40964;42.114;24.220;2024-03-23T06:59:10;97924.47;;;7.68;62.27
55066;BME280;40964;42.114;24.220;2024-03-23T07:01:36;97915.69;;;7.83;60.66
55066;BME280;40964;42.114;24.220;2024-03-23T07:04:02;97915.53;;;7.97;62.65
55066;BME280;40964;42.114;24.220;2024-03-23T07:06:29;97915.56;;;8.11;60.98
55066;BME280;40964;42.114;24.220;2024-03-23T07:08:54;97914.22;;;8.28;61.04
55066;BME280;40964;42.114;24.220;2024-03-23T07:11:21;97904.53;;;8.29;62.57
55066;BME280;40964;42.114;24.220;2024-03-23T07:13:49;97910.59;;;8.29;61.42
55066;BME280;40964;42.114;24.220;2024-03-23T07:16:16;97917.63;;;8.22;61.20
55066;BME280;40964;42.114;24.220;2024-03-23T07:18:41;97911.38;;;8.30;61.64
55066;BME280;40964;42.114;24.220;2024-03-23T07:21:07;97912.06;;;8.45;61.93
55066;BME280;40964;42.114;24.220;2024-03-23T07:23:32;97918.31;;;8.57;60.85
55066;BME280;40964;42.114;24.220;2024-03-23T07:26:02;97914.50;;;8.66;60.45
55066;BME280;40964;42.114;24.220;2024-03-23T07:28:28;97913.50;;;8.74;60.83
55066;BME280;40964;42.114;24.220;2024-03-23T07:33:28;97902.38;;;8.78;59.67
55066;BME280;40964;42.114;24.220;2024-03-23T07:35:54;97903.75;;;9.14;60.05
55066;BME280;40964;42.114;24.220;2024-03-23T07:38:19;97903.75;;;9.27;60.00
55066;BME280;40964;42.114;24.220;2024-03-23T07:40:45;97900.06;;;9.48;59.44
55066;BME280;40964;42.114;24.220;2024-03-23T07:43:10;97884.75;;;9.38;59.35
55066;BME280;40964;42.114;24.220;2024-03-23T07:45:36;97895.19;;;9.58;56.81
55066;BME280;40964;42.114;24.220;2024-03-23T07:48:03;97879.88;;;9.49;55.30
55066;BME280;40964;42.114;24.220;2024-03-23T07:50:29;97891.44;;;9.86;56.17
55066;BME280;40964;42.114;24.220;2024-03-23T07:52:54;97881.38;;;9.76;55.34
55066;BME280;40964;42.114;24.220;2024-03-23T07:55:19;97888.13;;;10.04;55.64
55066;BME280;40964;42.114;24.220;2024-03-23T07:57:46;97884.78;;;10.21;56.25
55066;BME280;40964;42.114;24.220;2024-03-23T08:00:12;97883.84;;;10.47;55.57
55066;BME280;40964;42.114;24.220;2024-03-23T08:02:38;97878.28;;;10.62;55.41
55066;BME280;40964;42.114;24.220;2024-03-23T08:05:04;97874.28;;;10.78;54.61
55066;BME280;40964;42.114;24.220;2024-03-23T08:07:29;97874.50;;;10.76;53.25
55066;BME280;40964;42.114;24.220;2024-03-23T08:09:55;97865.84;;;10.94;55.16
55066;BME280;40964;42.114;24.220;2024-03-23T08:12:20;97861.63;;;11.30;54.10
55066;BME280;40964;42.114;24.220;2024-03-23T08:14:46;97852.34;;;11.27;51.68
55066;BME280;40964;42.114;24.220;2024-03-23T08:17:11;97854.69;;;11.35;51.27
55066;BME280;40964;42.114;24.220;2024-03-23T08:19:36;97851.03;;;11.18;53.80
55066;BME280;40964;42.114;24.220;2024-03-23T08:22:02;97846.66;;;11.30;53.19
55066;BME280;40964;42.114;24.220;2024-03-23T08:24:27;97846.78;;;11.54;55.00
55066;BME280;40964;42.114;24.220;2024-03-23T08:26:54;97836.22;;;11.42;53.92
55066;BME280;40964;42.114;24.220;2024-03-23T08:29:20;97798.56;;;11.23;54.49
55066;BME280;40964;42.114;24.220;2024-03-23T08:31:45;97833.91;;;11.64;54.79
55066;BME280;40964;42.114;24.220;2024-03-23T08:34:10;97839.47;;;11.56;54.69
55066;BME280;40964;42.114;24.220;2024-03-23T08:36:36;97834.31;;;11.79;53.55
55066;BME280;40964;42.114;24.220;2024-03-23T08:39:01;97843.09;;;11.91;53.65
55066;BME280;40964;42.114;24.220;2024-03-23T08:41:27;97826.25;;;12.23;56.17
55066;BME280;40964;42.114;24.220;2024-03-23T08:43:52;97836.34;;;12.37;54.29
55066;BME280;40964;42.114;24.220;2024-03-23T08:46:18;97827.66;;;12.48;53.25
55066;BME280;40964;42.114;24.220;2024-03-23T08:48:44;97825.84;;;12.61;52.24
55066;BME280;40964;42.114;24.220;2024-03-23T08:51:12;97822.41;;;12.95;52.36
55066;BME280;40964;42.114;24.220;2024-03-23T08:53:39;97814.00;;;13.33;51.91
55066;BME280;40964;42.114;24.220;2024-03-23T08:56:05;97814.97;;;13.56;49.57
55066;BME280;40964;42.114;24.220;2024-03-23T08:58:32;97812.59;;;13.43;51.65
55066;BME280;40964;42.114;24.220;2024-03-23T09:03:32;97808.78;;;13.50;48.89
55066;BME280;40964;42.114;24.220;2024-03-23T09:05:58;97806.34;;;13.60;49.17
55066;BME280;40964;42.114;24.220;2024-03-23T09:08:24;97804.38;;;13.68;50.54
55066;BME280;40964;42.114;24.220;2024-03-23T09:10:49;97800.66;;;13.97;49.53
55066;BME280;40964;42.114;24.220;2024-03-23T09:13:15;97786.56;;;14.08;48.59
55066;BME280;40964;42.114;24.220;2024-03-23T09:15:52;97795.56;;;14.24;49.52
55066;BME280;40964;42.114;24.220;2024-03-23T09:18:21;97797.06;;;14.48;47.50
55066;BME280;40964;42.114;24.220;2024-03-23T09:20:47;97786.34;;;14.43;47.87
55066;BME280;40964;42.114;24.220;2024-03-23T09:23:12;97785.00;;;14.41;48.30
55066;BME280;40964;42.114;24.220;2024-03-23T09:25:41;97787.28;;;14.49;46.70
55066;BME280;40964;42.114;24.220;2024-03-23T09:28:07;97771.16;;;14.51;48.25
55066;BME280;40964;42.114;24.220;2024-03-23T09:30:34;97760.31;;;14.69;45.69
55066;BME280;40964;42.114;24.220;2024-03-23T09:32:59;97767.66;;;14.84;46.36
55066;BME280;40964;42.114;24.220;2024-03-23T09:35:26;97760.72;;;14.99;44.89
55066;BME280;40964;42.114;24.220;2024-03-23T09:37:51;97753.56;;;15.00;45.21
55066;BME280;40964;42.114;24.220;2024-03-23T09:40:17;97753.38;;;15.50;46.31
55066;BME280;40964;42.114;24.220;2024-03-23T09:42:42;97748.75;;;15.41;42.81
55066;BME280;40964;42.114;24.220;2024-03-23T09:45:26;97747.91;;;15.84;47.67
55066;BME280;40964;42.114;24.220;2024-03-23T09:47:52;97744.69;;;16.09;43.48
55066;BME280;40964;42.114;24.220;2024-03-23T09:50:18;97738.88;;;16.12;43.75
55066;BME280;40964;42.114;24.220;2024-03-23T09:52:45;97746.56;;;16.13;42.82
55066;BME280;40964;42.114;24.220;2024-03-23T09:55:11;97732.84;;;15.89;42.84
55066;BME280;40964;42.114;24.220;2024-03-23T09:57:36;97733.50;;;16.02;42.10
55066;BME280;40964;42.114;24.220;2024-03-23T10:00:03;97726.59;;;16.06;43.13
55066;BME280;40964;42.114;24.220;2024-03-23T10:02:29;97725.94;;;16.21;41.39
55066;BME280;40964;42.114;24.220;2024-03-23T10:04:54;97723.94;;;16.38;43.54
55066;BME280;40964;42.114;24.220;2024-03-23T10:07:20;97717.91;;;16.48;40.68
55066;BME280;40964;42.114;24.220;2024-03-23T10:09:50;97714.38;;;16.79;40.40
55066;BME280;40964;42.114;24.220;2024-03-23T10:12:19;97715.03;;;16.54;40.13
55066;BME280;40964;42.114;24.220;2024-03-23T10:14:45;97710.22;;;16.51;37.95
55066;BME280;40964;42.114;24.220;2024-03-23T10:17:19;97706.84;;;16.66;38.50
55066;BME280;40964;42.114;24.220;2024-03-23T10:19:46;97705.44;;;16.48;37.67
55066;BME280;40964;42.114;24.220;2024-03-23T10:22:19;97699.94;;;16.65;39.92
55066;BME280;40964;42.114;24.220;2024-03-23T10:24:44;97707.13;;;16.64;37.57
55066;BME280;40964;42.114;24.220;2024-03-23T10:27:15;97682.59;;;16.47;37.00
55066;BME280;40964;42.114;24.220;2024-03-23T10:29:41;97688.44;;;16.49;38.01
55066;BME280;40964;42.114;24.220;2024-03-23T10:32:13;97692.47;;;16.62;37.74
55066;BME280;40964;42.114;24.220;2024-03-23T10:34:40;97679.94;;;16.52;37.70
55066;BME280;40964;42.114;24.220;2024-03-23T10:37:06;97666.88;;;16.88;38.85
55066;BME280;40964;42.114;24.220;2024-03-23T10:42:01;97666.00;;;17.45;36.05
55066;BME280;40964;42.114;24.220;2024-03-23T10:44:28;97659.03;;;17.28;34.46
55066;BME280;40964;42.114;24.220;2024-03-23T10:46:56;97659.28;;;17.22;35.29
55066;BME280;40964;42.114;24.220;2024-03-23T10:49:32;97650.19;;;17.02;35.12
55066;BME280;40964;42.114;24.220;2024-03-23T10:51:59;97654.00;;;17.27;37.59
55066;BME280;40964;42.114;24.220;2024-03-23T10:54:25;97648.47;;;17.54;35.15
55066;BME280;40964;42.114;24.220;2024-03-23T10:57:10;97645.00;;;17.53;36.59
55066;BME280;40964;42.114;24.220;2024-03-23T10:59:38;97635.44;;;17.93;35.80
55066;BME280;40964;42.114;24.220;2024-03-23T11:02:05;97626.91;;;17.60;33.69
55066;BME280;40964;42.114;24.220;2024-03-23T11:04:34;97620.00;;;17.95;35.67
55066;BME280;40964;42.114;24.220;2024-03-23T11:09:54;97613.06;;;17.43;34.04
55066;BME280;40964;42.114;24.220;2024-03-23T11:14:45;97624.31;;;17.71;33.84
55066;BME280;40964;42.114;24.220;2024-03-23T11:17:11;97606.72;;;17.85;35.49
55066;BME280;40964;42.114;24.220;2024-03-23T11:19:37;97604.06;;;17.85;34.38
55066;BME280;40964;42.114;24.220;2024-03-23T11:22:03;97588.59;;;18.07;39.11
55066;BME280;40964;42.114;24.220;2024-03-23T11:24:30;97585.91;;;18.12;32.84
55066;BME280;40964;42.114;24.220;2024-03-23T11:26:55;97585.66;;;18.04;35.99
55066;BME280;40964;42.114;24.220;2024-03-23T11:29:21;97573.44;;;17.87;33.82
55066;BME280;40964;42.114;24.220;2024-03-23T11:31:51;97570.53;;;17.84;34.14
55066;BME280;40964;42.114;24.220;2024-03-23T11:34:18;97563.09;;;17.86;33.43
55066;BME280;40964;42.114;24.220;2024-03-23T11:36:45;97555.88;;;18.02;34.72
55066;BME280;40964;42.114;24.220;2024-03-23T11:39:14;97533.78;;;18.06;34.82
55066;BME280;40964;42.114;24.220;2024-03-23T11:41:50;97541.94;;;18.30;33.94
55066;BME280;40964;42.114;24.220;2024-03-23T11:44:17;97543.25;;;18.33;34.08
55066;BME280;40964;42.114;24.220;2024-03-23T11:46:43;97545.78;;;17.94;33.21
55066;BME280;40964;42.114;24.220;2024-03-23T11:49:29;97533.03;;;17.65;32.68
55066;BME280;40964;42.114;24.220;2024-03-23T11:51:55;97537.03;;;17.63;32.25
55066;BME280;40964;42.114;24.220;2024-03-23T11:54:23;97525.56;;;17.87;33.56
55066;BME280;40964;42.114;24.220;2024-03-23T11:57:01;97528.19;;;18.03;33.65
55066;BME280;40964;42.114;24.220;2024-03-23T11:59:41;97521.00;;;18.08;34.77
55066;BME280;40964;42.114;24.220;2024-03-23T12:04:33;97514.56;;;18.14;33.60
55066;BME280;40964;42.114;24.220;2024-03-23T12:07:18;97509.25;;;18.25;33.88
55066;BME280;40964;42.114;24.220;2024-03-23T12:09:44;97508.34;;;18.39;33.16
55066;BME280;40964;42.114;24.220;2024-03-23T12:12:15;97503.28;;;18.43;31.79
55066;BME280;40964;42.114;24.220;2024-03-23T12:14:45;97501.28;;;18.74;32.84
55066;BME280;40964;42.114;24.220;2024-03-23T12:17:15;97495.19;;;18.68;30.38
55066;BME280;40964;42.114;24.220;2024-03-23T12:19:41;97495.94;;;18.79;30.03
55066;BME280;40964;42.114;24.220;2024-03-23T12:22:10;97495.97;;;18.64;31.99
55066;BME280;40964;42.114;24.220;2024-03-23T12:24:35;97494.81;;;18.36;31.42
55066;BME280;40964;42.114;24.220;2024-03-23T12:27:04;97485.91;;;18.61;32.29
55066;BME280;40964;42.114;24.220;2024-03-23T12:29:34;97483.47;;;18.59;31.94
55066;BME280;40964;42.114;24.220;2024-03-23T12:32:00;97486.81;;;18.36;29.95
55066;BME280;40964;42.114;24.220;2024-03-23T12:34:27;97476.38;;;18.44;29.47
55066;BME280;40964;42.114;24.220;2024-03-23T12:36:53;97466.59;;;18.35;29.05
55066;BME280;40964;42.114;24.220;2024-03-23T12:39:18;97465.25;;;18.32;30.76
55066;BME280;40964;42.114;24.220;2024-03-23T12:41:46;97452.13;;;18.51;30.03
55066;BME280;40964;42.114;24.220;2024-03-23T12:44:11;97463.13;;;18.84;30.25
55066;BME280;40964;42.114;24.220;2024-03-23T12:46:40;97452.97;;;19.20;30.94
55066;BME280;40964;42.114;24.220;2024-03-23T12:49:06;97443.84;;;19.26;28.67
55066;BME280;40964;42.114;24.220;2024-03-23T12:51:32;97448.88;;;18.98;27.22
55066;BME280;40964;42.114;24.220;2024-03-23T12:54:21;97454.31;;;18.83;28.47
55066;BME280;40964;42.114;24.220;2024-03-23T13:01:00;97442.28;;;19.49;28.14
55066;BME280;40964;42.114;24.220;2024-03-23T13:03:26;97436.72;;;19.74;26.64
55066;BME280;40964;42.114;24.220;2024-03-23T13:05:52;97429.72;;;20.02;29.23
55066;BME280;40964;42.114;24.220;2024-03-23T13:08:17;97431.22;;;19.37;28.25
55066;BME280;40964;42.114;24.220;2024-03-23T13:10:43;97423.53;;;19.30;28.64
55066;BME280;40964;42.114;24.220;2024-03-23T13:13:10;97379.94;;;18.87;27.35
55066;BME280;40964;42.114;24.220;2024-03-23T13:15:35;97414.81;;;19.24;28.60
55066;BME280;40964;42.114;24.220;2024-03-23T13:18:01;97410.44;;;19.63;32.54
55066;BME280;40964;42.114;24.220;2024-03-23T13:20:26;97413.03;;;19.68;28.60
55066;BME280;40964;42.114;24.220;2024-03-23T13:22:51;97412.06;;;19.82;30.57
55066;BME280;40964;42.114;24.220;2024-03-23T13:25:17;97404.19;;;19.72;28.35
55066;BME280;40964;42.114;24.220;2024-03-23T13:27:44;97398.47;;;19.60;27.88
55066;BME280;40964;42.114;24.220;2024-03-23T13:30:10;97384.41;;;19.25;28.63
55066;BME280;40964;42.114;24.220;2024-03-23T13:32:35;97372.88;;;19.06;28.71
55066;BME280;40964;42.114;24.220;2024-03-23T13:35:01;97386.34;;;18.86;28.76
55066;BME280;40964;42.114;24.220;2024-03-23T13:37:27;97384.69;;;18.95;28.67
55066;BME280;40964;42.114;24.220;2024-03-23T13:39:52;97383.50;;;18.77;28.50
55066;BME280;40964;42.114;24.220;2024-03-23T13:42:17;97382.34;;;18.88;28.53
55066;BME280;40964;42.114;24.220;2024-03-23T13:44:43;97378.53;;;18.99;28.24
55066;BME280;40964;42.114;24.220;2024-03-23T13:47:08;97372.78;;;18.87;27.39
55066;BME280;40964;42.114;24.220;2024-03-23T13:49:34;97370.94;;;18.83;27.58
55066;BME280;40964;42.114;24.220;2024-03-23T13:52:00;97364.13;;;19.00;29.52
55066;BME280;40964;42.114;24.220;2024-03-23T13:54:26;97360.84;;;18.80;25.76
55066;BME280;40964;42.114;24.220;2024-03-23T13:56:52;97358.00;;;18.71;26.79
55066;BME280;40964;42.114;24.220;2024-03-23T13:59:18;97357.63;;;18.83;27.07
55066;BME280;40964;42.114;24.220;2024-03-23T14:01:46;97355.94;;;18.92;28.06
55066;BME280;40964;42.114;24.220;2024-03-23T14:04:13;97357.41;;;19.03;28.00